createdAt,value
2019-03-06T00:01:24.956Z,91982.32
2019-03-06T00:04:13.750Z,91984.47
2019-03-06T00:07:02.984Z,91983.58
2019-03-06T00:09:53.212Z,91981.36
2019-03-06T00:12:42.082Z,91975.75
2019-03-06T00:15:31.361Z,91973.14
2019-03-06T00:18:20.205Z,91976.41
2019-03-06T00:21:09.487Z,91972.52
2019-03-06T00:23:58.515Z,91970.05
2019-03-06T00:26:47.729Z,91983.88
2019-03-06T00:29:37.051Z,91983.08
2019-03-06T00:32:26.395Z,91974.06
2019-03-06T00:35:20.447Z,91971.10
2019-03-06T00:38:09.574Z,91961.58
2019-03-06T00:41:18.022Z,91953.11
2019-03-06T00:44:07.268Z,91952.34
2019-03-06T00:46:56.616Z,91946.63
2019-03-06T00:49:45.762Z,91938.14
2019-03-06T00:52:35.027Z,91940.52
2019-03-06T00:55:24.266Z,91941.14
2019-03-06T00:58:13.811Z,91939.80
2019-03-06T01:01:02.767Z,91943.97
2019-03-06T01:03:52.112Z,91947.52
2019-03-06T01:06:41.305Z,91948.61
2019-03-06T01:09:30.160Z,91945.70
2019-03-06T01:12:19.451Z,91949.41
2019-03-06T01:15:09.023Z,91944.44
2019-03-06T01:17:58.205Z,91943.50
2019-03-06T01:20:47.620Z,91944.45
2019-03-06T01:23:36.647Z,91944.78
2019-03-06T01:26:25.946Z,91946.13
2019-03-06T01:29:15.243Z,91943.22
2019-03-06T01:32:05.110Z,91939.67
2019-03-06T01:35:19.410Z,91935.10
2019-03-06T01:38:37.008Z,91941.02
2019-03-06T01:42:03.913Z,91936.58
2019-03-06T01:44:56.324Z,91941.80
2019-03-06T01:47:45.311Z,91944.41
2019-03-06T01:50:34.610Z,91940.94
2019-03-06T01:53:27.110Z,91941.72
2019-03-06T01:56:16.320Z,91948.58
2019-03-06T01:59:05.883Z,91951.25
2019-03-06T02:01:55.137Z,91945.02
2019-03-06T02:04:44.532Z,91943.52
2019-03-06T02:07:34.210Z,91943.82
2019-03-06T02:10:23.313Z,91944.84
2019-03-06T02:13:14.234Z,91941.73
2019-03-06T02:16:03.895Z,91935.20
2019-03-06T02:18:53.141Z,91942.51
2019-03-06T02:21:42.774Z,91939.34
2019-03-06T02:24:32.336Z,91938.94
2019-03-06T02:27:21.603Z,91945.05
2019-03-06T02:30:13.993Z,91953.84
2019-03-06T02:33:03.089Z,91950.89
2019-03-06T02:35:52.557Z,91956.17
2019-03-06T02:38:41.623Z,91964.88
2019-03-06T02:41:30.946Z,91965.47
2019-03-06T02:44:20.135Z,91964.25
2019-03-06T02:47:09.427Z,91964.02
2019-03-06T02:49:58.926Z,91973.78
2019-03-06T02:52:48.542Z,91974.52
2019-03-06T02:55:37.786Z,91977.31
2019-03-06T02:58:44.278Z,91979.44
2019-03-06T03:01:47.799Z,91984.55
2019-03-06T03:04:41.633Z,91993.34
2019-03-06T03:07:30.853Z,91999.59
2019-03-06T03:10:20.390Z,91996.30
2019-03-06T03:13:09.193Z,91997.63
2019-03-06T03:15:58.530Z,92006.08
2019-03-06T03:18:47.683Z,92010.90
2019-03-06T03:21:36.988Z,92008.86
2019-03-06T03:24:26.250Z,92008.70
2019-03-06T03:27:15.336Z,92008.34
2019-03-06T03:30:05.689Z,92011.09
2019-03-06T03:32:55.538Z,92011.97
2019-03-06T03:35:45.213Z,92004.41
2019-03-06T03:38:34.684Z,92007.26
2019-03-06T03:41:23.390Z,92012.00
2019-03-06T03:44:12.656Z,92016.45
2019-03-06T03:47:01.937Z,92018.30
2019-03-06T03:49:51.301Z,92022.41
2019-03-06T03:52:40.686Z,92023.92
2019-03-06T03:55:33.113Z,92022.32
2019-03-06T03:58:22.175Z,92028.63
2019-03-06T04:01:11.643Z,92025.87
2019-03-06T04:04:00.679Z,92023.27
2019-03-06T04:06:50.017Z,92025.12
2019-03-06T04:09:39.341Z,92021.85
2019-03-06T04:12:28.642Z,92030.33
2019-03-06T04:15:18.868Z,92032.53
2019-03-06T04:18:08.424Z,92039.84
2019-03-06T04:20:57.981Z,92035.36
2019-03-06T04:23:47.263Z,92029.30
2019-03-06T04:26:36.563Z,92033.64
2019-03-06T04:29:25.646Z,92032.33
2019-03-06T04:32:14.192Z,92033.75
2019-03-06T04:35:03.454Z,92024.99
2019-03-06T04:37:52.743Z,92027.27
2019-03-06T04:40:41.883Z,92025.62
2019-03-06T04:43:31.105Z,92027.92
2019-03-06T04:46:20.769Z,92031.94
2019-03-06T04:49:09.831Z,92039.52
2019-03-06T04:51:59.417Z,92041.47
2019-03-06T04:54:48.637Z,92049.46
2019-03-06T04:57:38.080Z,92051.94
2019-03-06T05:00:27.614Z,92060.64
2019-03-06T05:03:16.786Z,92052.22
2019-03-06T05:06:06.489Z,92057.45
2019-03-06T05:08:55.844Z,92057.07
2019-03-06T05:11:45.363Z,92057.79
2019-03-06T05:14:35.025Z,92058.03
2019-03-06T05:17:52.642Z,92062.36
2019-03-06T05:20:41.927Z,92059.17
2019-03-06T05:23:31.181Z,92077.15
2019-03-06T05:26:20.483Z,92069.11
2019-03-06T05:29:09.760Z,92075.16
2019-03-06T05:32:45.460Z,92070.62
2019-03-06T05:36:24.139Z,92077.62
2019-03-06T05:39:13.337Z,92082.56
2019-03-06T05:42:03.573Z,92094.75
2019-03-06T05:44:53.370Z,92101.08
2019-03-06T05:47:42.698Z,92098.23
2019-03-06T05:50:38.699Z,92096.80
2019-03-06T05:53:30.283Z,92102.05
2019-03-06T05:56:25.717Z,92111.82
2019-03-06T05:59:15.359Z,92112.87
2019-03-06T06:02:04.245Z,92114.39
2019-03-06T06:04:53.325Z,92127.65
2019-03-06T06:07:43.096Z,92106.16
2019-03-06T06:10:32.375Z,92115.30
2019-03-06T06:13:21.958Z,92104.31
2019-03-06T06:16:10.616Z,92111.69
2019-03-06T06:18:59.125Z,92115.36
2019-03-06T06:22:16.466Z,92116.41
2019-03-06T06:25:05.636Z,92120.13
2019-03-06T06:27:55.247Z,92107.86
2019-03-06T06:30:44.306Z,92115.20
2019-03-06T06:33:33.759Z,92125.00
2019-03-06T06:36:23.365Z,92113.50
2019-03-06T06:39:12.935Z,92107.78
2019-03-06T06:42:01.741Z,92111.72
2019-03-06T06:44:51.094Z,92112.20
2019-03-06T06:48:15.101Z,92118.94
2019-03-06T06:51:46.533Z,92124.83
2019-03-06T06:55:12.936Z,92131.75
2019-03-06T06:58:33.217Z,92136.59
2019-03-06T07:01:52.929Z,92142.71
2019-03-06T07:05:33.110Z,92145.81
2019-03-06T07:08:40.556Z,92152.27
2019-03-06T07:11:50.660Z,92157.52
2019-03-06T07:14:59.176Z,92160.16
2019-03-06T07:17:57.304Z,92166.83
2019-03-06T07:21:20.739Z,92165.84
2019-03-06T07:24:24.945Z,92160.02
2019-03-06T07:27:39.097Z,92160.02
2019-03-06T07:30:37.310Z,92157.83
2019-03-06T07:33:57.810Z,92165.41
2019-03-06T07:36:55.531Z,92164.31
2019-03-06T07:39:54.923Z,92167.88
2019-03-06T07:43:01.945Z,92172.05
2019-03-06T07:46:12.799Z,92155.77
2019-03-06T07:49:44.761Z,92158.44
2019-03-06T07:52:44.922Z,92155.73
2019-03-06T07:55:50.678Z,92148.70
2019-03-06T07:58:54.198Z,92148.02
2019-03-06T08:02:04.558Z,92150.16
2019-03-06T08:04:54.544Z,92147.80
2019-03-06T08:07:44.140Z,92142.28
2019-03-06T08:10:36.332Z,92150.59
2019-03-06T08:13:50.293Z,92147.97
2019-03-06T08:16:48.059Z,92147.05
2019-03-06T08:20:02.572Z,92162.79
2019-03-06T08:23:17.500Z,92163.99
2019-03-06T08:26:06.959Z,92177.22
2019-03-06T08:28:56.341Z,92193.33
2019-03-06T08:31:54.610Z,92195.27
2019-03-06T08:34:43.915Z,92198.94
2019-03-06T08:37:33.633Z,92195.45
2019-03-06T08:40:23.270Z,92194.02
2019-03-06T08:43:12.535Z,92203.52
2019-03-06T08:46:23.564Z,92208.53
2019-03-06T08:49:31.587Z,92211.94
2019-03-06T08:52:42.610Z,92212.25
2019-03-06T08:55:54.128Z,92215.45
2019-03-06T08:59:18.737Z,92210.09
2019-03-06T09:02:33.464Z,92200.35
2019-03-06T09:05:39.378Z,92204.32
2019-03-06T09:09:02.094Z,92213.42
2019-03-06T09:12:13.104Z,92207.03
2019-03-06T09:15:35.579Z,92211.56
2019-03-06T09:18:42.369Z,92218.02
2019-03-06T09:21:49.067Z,92209.88
2019-03-06T09:24:56.271Z,92206.65
2019-03-06T09:28:10.630Z,92213.53
2019-03-06T09:31:14.627Z,92215.09
2019-03-06T09:34:22.651Z,92213.47
2019-03-06T09:37:29.952Z,92208.34
2019-03-06T09:40:53.756Z,92220.36
2019-03-06T09:44:00.516Z,92212.70
2019-03-06T09:46:59.091Z,92201.36
2019-03-06T09:50:16.807Z,92201.14
2019-03-06T09:53:31.540Z,92206.77
2019-03-06T09:56:40.403Z,92202.36
2019-03-06T09:59:34.812Z,92206.94
2019-03-06T10:02:52.020Z,92210.92
2019-03-06T10:06:05.951Z,92202.27
2019-03-06T10:09:14.071Z,92210.93
2019-03-06T10:12:28.147Z,92211.67
2019-03-06T10:15:25.418Z,92224.55
2019-03-06T10:18:36.614Z,92199.83
2019-03-06T10:21:25.846Z,92196.74
2019-03-06T10:24:15.933Z,92194.11
2019-03-06T10:27:05.515Z,92194.11
2019-03-06T10:29:55.012Z,92200.80
2019-03-06T10:32:44.635Z,92204.02
2019-03-06T10:35:34.235Z,92209.55
2019-03-06T10:38:24.257Z,92216.12
2019-03-06T10:41:13.546Z,92211.36
2019-03-06T10:44:02.803Z,92200.61
2019-03-06T10:46:52.073Z,92204.37
2019-03-06T10:49:41.449Z,92212.55
2019-03-06T10:52:30.276Z,92210.52
2019-03-06T10:55:19.569Z,92212.59
2019-03-06T10:58:08.852Z,92210.58
2019-03-06T11:00:58.337Z,92212.03
2019-03-06T11:04:12.551Z,92226.11
2019-03-06T11:07:01.706Z,92219.75
2019-03-06T11:09:50.977Z,92223.66
2019-03-06T11:12:40.257Z,92208.89
2019-03-06T11:15:29.600Z,92211.44
2019-03-06T11:18:18.628Z,92213.05
2019-03-06T11:21:08.552Z,92203.54
2019-03-06T11:23:58.122Z,92198.13
2019-03-06T11:26:48.240Z,92204.89
2019-03-06T11:29:37.676Z,92200.95
2019-03-06T11:32:27.067Z,92206.23
2019-03-06T11:35:18.119Z,92215.02
2019-03-06T11:38:07.963Z,92214.38
2019-03-06T11:40:57.459Z,92203.84
2019-03-06T11:43:46.924Z,92206.14
2019-03-06T11:46:35.874Z,92211.86
2019-03-06T11:49:25.200Z,92219.03
2019-03-06T11:52:15.191Z,92217.48
2019-03-06T11:55:07.541Z,92214.77
2019-03-06T11:57:57.647Z,92210.56
2019-03-06T12:00:47.303Z,92218.50
2019-03-06T12:03:38.110Z,92209.41
2019-03-06T12:06:27.314Z,92208.86
2019-03-06T12:09:35.785Z,92207.95
2019-03-06T12:12:25.030Z,92201.02
2019-03-06T12:15:15.935Z,92207.91
2019-03-06T12:18:05.214Z,92203.27
2019-03-06T12:20:55.301Z,92204.75
2019-03-06T12:23:44.253Z,92205.71
2019-03-06T12:26:33.798Z,92200.71
2019-03-06T12:29:24.389Z,92202.38
2019-03-06T12:32:13.105Z,92193.30
2019-03-06T12:35:05.207Z,92206.90
2019-03-06T12:37:54.685Z,92202.23
2019-03-06T12:40:44.031Z,92203.48
2019-03-06T12:43:33.847Z,92207.34
2019-03-06T12:46:26.733Z,92201.49
2019-03-06T12:49:17.831Z,92209.66
2019-03-06T12:52:07.209Z,92212.23
2019-03-06T12:54:56.495Z,92200.00
2019-03-06T12:57:46.055Z,92200.88
2019-03-06T13:00:21.556Z,92212.44
2019-03-06T13:02:52.707Z,92200.82
2019-03-06T13:05:26.384Z,92202.21
2019-03-06T13:07:57.339Z,92203.45
2019-03-06T13:10:28.189Z,92207.73
2019-03-06T13:12:59.172Z,92208.03
2019-03-06T13:15:30.058Z,92199.70
2019-03-06T13:18:01.006Z,92198.41
2019-03-06T13:20:31.876Z,92193.22
2019-03-06T13:23:04.079Z,92198.42
2019-03-06T13:25:35.048Z,92206.70
2019-03-06T13:28:06.001Z,92205.48
2019-03-06T13:30:38.164Z,92201.30
2019-03-06T13:33:30.696Z,92203.27
2019-03-06T13:36:01.664Z,92197.14
2019-03-06T13:38:32.650Z,92206.69
2019-03-06T13:41:03.516Z,92200.20
2019-03-06T13:43:34.465Z,92196.39
2019-03-06T13:46:05.413Z,92209.23
2019-03-06T13:48:36.268Z,92206.06
2019-03-06T13:51:07.933Z,92211.25
2019-03-06T13:53:38.785Z,92210.94
2019-03-06T13:56:10.244Z,92210.40
2019-03-06T13:58:41.189Z,92212.55
2019-03-06T14:01:12.499Z,92212.55
2019-03-06T14:03:43.723Z,92221.48
2019-03-06T14:06:14.714Z,92215.35
2019-03-06T14:09:05.677Z,92208.82
2019-03-06T14:11:36.567Z,92204.88
2019-03-06T14:14:07.434Z,92201.72
2019-03-06T14:16:38.349Z,92211.50
2019-03-06T14:19:09.319Z,92209.89
2019-03-06T14:21:40.186Z,92204.05
2019-03-06T14:24:11.061Z,92207.76
2019-03-06T14:26:57.820Z,92210.98
2019-03-06T14:29:28.678Z,92213.72
2019-03-06T14:32:00.830Z,92208.56
2019-03-06T14:34:32.077Z,92210.45
2019-03-06T14:37:03.057Z,92213.48
2019-03-06T14:39:33.914Z,92209.36
2019-03-06T14:42:05.187Z,92212.00
2019-03-06T14:44:36.053Z,92212.07
2019-03-06T14:47:07.209Z,92212.20
2019-03-06T14:49:38.356Z,92215.88
2019-03-06T14:52:09.237Z,92219.41
2019-03-06T14:54:40.115Z,92227.53
2019-03-06T14:57:11.319Z,92218.45
2019-03-06T14:59:44.045Z,92204.86
2019-03-06T15:02:15.533Z,92209.47
2019-03-06T15:04:46.404Z,92211.50
2019-03-06T15:07:17.280Z,92214.41
2019-03-06T15:09:48.242Z,92227.75
2019-03-06T15:12:19.102Z,92228.09
2019-03-06T15:14:50.146Z,92236.02
2019-03-06T15:17:21.108Z,92232.27
2019-03-06T15:19:51.979Z,92239.76
2019-03-06T15:22:22.872Z,92241.64
2019-03-06T15:24:54.042Z,92254.19
2019-03-06T15:27:25.084Z,92253.52
2019-03-06T15:29:55.943Z,92251.60
2019-03-06T15:32:28.108Z,92252.52
2019-03-06T15:34:59.095Z,92251.95
2019-03-06T15:37:29.956Z,92250.91
2019-03-06T15:40:01.088Z,92253.84
2019-03-06T15:42:32.019Z,92249.79
2019-03-06T15:45:02.883Z,92255.84
2019-03-06T15:47:34.057Z,92261.97
2019-03-06T15:50:05.583Z,92259.75
2019-03-06T15:52:36.474Z,92268.64
2019-03-06T15:55:08.431Z,92268.36
2019-03-06T15:57:40.711Z,92275.22
2019-03-06T16:00:28.575Z,92279.18
2019-03-06T16:02:59.857Z,92289.30
2019-03-06T16:05:31.120Z,92288.09
2019-03-06T16:08:02.529Z,92298.26
2019-03-06T16:10:35.204Z,92306.11
2019-03-06T16:13:07.346Z,92303.27
2019-03-06T16:15:38.773Z,92313.01
2019-03-06T16:18:10.274Z,92309.44
2019-03-06T16:20:42.514Z,92317.83
2019-03-06T16:23:15.343Z,92314.12
2019-03-06T16:25:49.050Z,92318.31
2019-03-06T16:28:19.926Z,92324.78
2019-03-06T16:30:51.172Z,92320.52
2019-03-06T16:33:22.150Z,92335.70
2019-03-06T16:35:53.056Z,92330.03
2019-03-06T16:38:23.959Z,92334.23
2019-03-06T16:40:54.823Z,92335.73
2019-03-06T16:43:25.858Z,92344.45
2019-03-06T16:45:56.832Z,92344.68
2019-03-06T16:48:27.781Z,92354.41
2019-03-06T16:50:59.110Z,92359.00
2019-03-06T16:53:30.076Z,92359.77
2019-03-06T16:56:00.991Z,92360.66
2019-03-06T16:58:32.054Z,92362.38
2019-03-06T17:01:03.004Z,92365.95
2019-03-06T17:03:34.070Z,92373.42
2019-03-06T17:06:05.369Z,92379.41
2019-03-06T17:08:36.353Z,92385.64
2019-03-06T17:11:08.068Z,92389.45
2019-03-06T17:13:39.032Z,92391.81
2019-03-06T17:16:10.008Z,92393.08
2019-03-06T17:18:42.640Z,92395.97
2019-03-06T17:21:13.509Z,92390.64
2019-03-06T17:23:44.450Z,92394.81
2019-03-06T17:26:16.091Z,92391.33
2019-03-06T17:28:46.970Z,92395.37
2019-03-06T17:31:17.879Z,92398.78
2019-03-06T17:33:49.745Z,92396.21
2019-03-06T17:36:20.611Z,92405.31
2019-03-06T17:38:51.797Z,92402.02
2019-03-06T17:41:22.861Z,92408.84
2019-03-06T17:43:53.729Z,92409.65
2019-03-06T17:46:24.703Z,92416.28
2019-03-06T17:48:55.658Z,92425.45
2019-03-06T17:51:27.473Z,92427.53
2019-03-06T17:53:58.344Z,92426.55
2019-03-06T17:56:29.305Z,92427.27
2019-03-06T17:59:00.174Z,92429.98
2019-03-06T18:01:31.149Z,92431.54
2019-03-06T18:04:17.381Z,92433.77
2019-03-06T18:06:48.462Z,92439.30
2019-03-06T18:09:19.521Z,92445.17
2019-03-06T18:11:50.728Z,92441.88
2019-03-06T18:14:22.102Z,92443.22
2019-03-06T18:16:53.104Z,92448.57
2019-03-06T18:19:24.149Z,92450.19
2019-03-06T18:21:55.247Z,92454.36
2019-03-06T18:24:26.433Z,92454.70
2019-03-06T18:26:57.884Z,92455.86
2019-03-06T18:29:28.757Z,92456.92
2019-03-06T18:32:00.280Z,92460.52
2019-03-06T18:34:31.564Z,92462.37
2019-03-06T18:37:02.574Z,92466.05
2019-03-06T18:39:33.479Z,92468.78
2019-03-06T18:42:04.602Z,92467.16
2019-03-06T18:44:35.764Z,92464.92
2019-03-06T18:47:06.838Z,92464.03
2019-03-06T18:49:37.794Z,92467.31
2019-03-06T18:52:08.886Z,92463.06
2019-03-06T18:54:39.800Z,92461.40
2019-03-06T18:57:10.666Z,92470.05
2019-03-06T18:59:41.549Z,92467.64
2019-03-06T19:02:12.507Z,92470.56
2019-03-06T19:04:43.403Z,92467.77
2019-03-06T19:07:14.436Z,92476.77
2019-03-06T19:09:45.779Z,92472.92
2019-03-06T19:12:18.270Z,92470.44
2019-03-06T19:14:50.090Z,92467.91
2019-03-06T19:17:21.395Z,92471.59
2019-03-06T19:19:52.401Z,92474.05
2019-03-06T19:22:23.499Z,92471.70
2019-03-06T19:24:54.497Z,92482.94
2019-03-06T19:27:25.369Z,92482.02
2019-03-06T19:29:56.269Z,92483.92
2019-03-06T19:32:27.824Z,92481.16
2019-03-06T19:35:00.773Z,92485.15
2019-03-06T19:37:31.652Z,92484.88
2019-03-06T19:40:04.160Z,92490.62
2019-03-06T19:42:35.161Z,92491.13
2019-03-06T19:45:07.147Z,92487.26
2019-03-06T19:47:38.282Z,92492.56
2019-03-06T19:50:11.988Z,92489.49
2019-03-06T19:52:43.069Z,92487.54
2019-03-06T19:55:15.961Z,92496.13
2019-03-06T19:57:54.908Z,92496.66
2019-03-06T20:00:26.657Z,92497.02
2019-03-06T20:02:58.478Z,92501.27
2019-03-06T20:05:35.819Z,92507.13
2019-03-06T20:08:09.866Z,92506.61
2019-03-06T20:10:41.545Z,92503.13
2019-03-06T20:13:12.692Z,92505.05
2019-03-06T20:15:44.665Z,92509.23
2019-03-06T20:18:15.637Z,92504.16
2019-03-06T20:20:46.820Z,92509.33
2019-03-06T20:23:17.823Z,92509.44
2019-03-06T20:25:49.077Z,92509.52
2019-03-06T20:28:19.993Z,92510.88
2019-03-06T20:30:50.865Z,92519.82
2019-03-06T20:33:22.189Z,92523.80
2019-03-06T20:35:54.229Z,92520.28
2019-03-06T20:38:25.103Z,92519.92
2019-03-06T20:40:55.951Z,92524.56
2019-03-06T20:43:27.026Z,92526.72
2019-03-06T20:45:57.886Z,92529.98
2019-03-06T20:48:28.883Z,92539.10
2019-03-06T20:50:59.883Z,92538.41
2019-03-06T20:53:30.746Z,92544.05
2019-03-06T20:56:01.613Z,92539.98
2019-03-06T20:58:32.659Z,92545.91
2019-03-06T21:01:22.282Z,92554.59
2019-03-06T21:04:11.537Z,92551.40
2019-03-06T21:07:01.337Z,92556.09
2019-03-06T21:09:51.117Z,92560.67
2019-03-06T21:12:40.674Z,92573.75
2019-03-06T21:15:30.098Z,92578.66
2019-03-06T21:18:19.399Z,92582.20
2019-03-06T21:21:08.813Z,92583.48
2019-03-06T21:23:58.057Z,92581.40
2019-03-06T21:26:47.538Z,92579.81
2019-03-06T21:29:36.845Z,92581.66
2019-03-06T21:32:25.658Z,92579.42
2019-03-06T21:35:15.043Z,92586.83
2019-03-06T21:38:04.389Z,92586.78
2019-03-06T21:40:54.130Z,92583.47
2019-03-06T21:43:43.794Z,92583.61
2019-03-06T21:46:32.850Z,92577.52
2019-03-06T21:49:22.102Z,92580.38
2019-03-06T21:52:11.261Z,92577.58
2019-03-06T21:55:00.582Z,92586.52
2019-03-06T21:57:50.096Z,92582.55
2019-03-06T22:00:39.661Z,92583.32
2019-03-06T22:03:28.513Z,92582.60
2019-03-06T22:06:17.932Z,92583.45
2019-03-06T22:09:13.648Z,92581.62
2019-03-06T22:12:05.609Z,92582.08
2019-03-06T22:14:54.431Z,92583.03
2019-03-06T22:17:44.111Z,92592.31
2019-03-06T22:20:33.269Z,92592.61
2019-03-06T22:23:22.991Z,92591.86
2019-03-06T22:26:12.284Z,92587.50
2019-03-06T22:29:02.266Z,92583.70
2019-03-06T22:31:51.641Z,92588.98
2019-03-06T22:34:41.251Z,92599.21
2019-03-06T22:37:31.520Z,92594.46
2019-03-06T22:40:20.491Z,92597.77
2019-03-06T22:43:09.778Z,92593.06
2019-03-06T22:45:59.046Z,92585.67
2019-03-06T22:48:48.544Z,92598.28
2019-03-06T22:51:37.419Z,92593.41
2019-03-06T22:54:26.699Z,92591.13
2019-03-06T22:57:15.960Z,92594.01
2019-03-06T23:00:11.370Z,92601.47
2019-03-06T23:03:00.858Z,92601.27
2019-03-06T23:05:50.388Z,92606.10
2019-03-06T23:08:39.579Z,92600.98
2019-03-06T23:11:28.516Z,92607.09
2019-03-06T23:14:18.128Z,92613.20
2019-03-06T23:17:10.336Z,92613.37
2019-03-06T23:19:59.392Z,92620.17
2019-03-06T23:22:48.900Z,92622.37
2019-03-06T23:25:38.334Z,92618.80
2019-03-06T23:28:27.215Z,92615.59
2019-03-06T23:31:16.885Z,92616.52
2019-03-06T23:34:06.268Z,92607.81
2019-03-06T23:36:55.568Z,92604.97
2019-03-06T23:39:46.364Z,92612.99
2019-03-06T23:42:35.970Z,92616.20
2019-03-06T23:45:24.989Z,92620.28
2019-03-06T23:48:14.575Z,92621.63
2019-03-06T23:51:09.331Z,92625.62
2019-03-06T23:53:58.133Z,92624.05
2019-03-06T23:56:47.430Z,92623.37
2019-03-06T23:59:36.913Z,92623.05
